Time;durP1;ratioP1;P1;durP2;ratioP2;P2;SDS_P1;SDS_P2;PMS_P1;PMS_P2;Temp;Humidity;BMP_temperature;BMP_pressure;BME280_temperature;BME280_humidity;BME280_pressure;Samples;Min_cycle;Max_cycle;Signal;HPM_P1;HPM_P2
2023/08/06 00:01:16;;;;;;;3.70;3.27;;;15.20;40.80;;;;;;4935585;29;20210;-71
2023/08/06 00:03:41;;;;;;;4.27;3.37;;;15.10;40.70;;;;;;4935356;29;20174;-71
2023/08/06 00:06:07;;;;;;;4.60;2.93;;;15.00;41.30;;;;;;4935614;29;20844;-71
2023/08/06 00:08:32;;;;;;;3.87;3.10;;;14.90;41.60;;;;;;4935548;29;20187;-69
2023/08/06 00:10:58;;;;;;;3.70;2.97;;;14.80;43.50;;;;;;4934238;29;20178;-70
2023/08/06 00:13:23;;;;;;;4.60;2.90;;;14.70;43.30;;;;;;4934923;29;20234;-70
2023/08/06 00:15:49;;;;;;;4.10;3.60;;;14.60;45.40;;;;;;4934255;29;20193;-71
2023/08/06 00:18:15;;;;;;;4.10;2.97;;;14.50;45.30;;;;;;4934450;29;20213;-70
2023/08/06 00:20:41;;;;;;;4.37;3.13;;;14.40;46.20;;;;;;4934183;29;20558;-70
2023/08/06 00:23:08;;;;;;;4.67;3.53;;;14.40;47.20;;;;;;4935420;29;20414;-70
2023/08/06 00:25:33;;;;;;;4.10;3.50;;;14.40;48.60;;;;;;4934086;29;20450;-70
2023/08/06 00:27:59;;;;;;;4.10;3.50;;;14.30;49.10;;;;;;4934100;29;20456;-70
2023/08/06 00:30:24;;;;;;;3.60;2.90;;;14.20;49.90;;;;;;4934060;29;20755;-70
2023/08/06 00:32:50;;;;;;;4.30;2.80;;;14.10;50.00;;;;;;4935242;29;20237;-70
2023/08/06 00:35:16;;;;;;;3.80;3.00;;;14.10;49.20;;;;;;4935393;29;20475;-70
2023/08/06 00:37:41;;;;;;;3.90;3.40;;;14.00;49.20;;;;;;4935310;29;20268;-71
2023/08/06 00:40:08;;;;;;;4.43;3.70;;;13.90;50.70;;;;;;4935032;29;20446;-70
2023/08/06 00:42:34;;;;;;;6.17;3.30;;;13.80;51.10;;;;;;4934938;29;20183;-70
2023/08/06 00:45:00;;;;;;;4.20;3.80;;;13.80;51.50;;;;;;4935134;29;20418;-70
2023/08/06 00:47:26;;;;;;;3.67;3.00;;;13.70;52.50;;;;;;4935125;29;20417;-71
2023/08/06 00:49:52;;;;;;;4.60;3.70;;;13.70;51.40;;;;;;4935023;29;20592;-70
2023/08/06 00:52:17;;;;;;;4.53;3.40;;;13.60;51.80;;;;;;4935493;29;20186;-70
2023/08/06 00:54:43;;;;;;;4.60;3.23;;;13.60;50.50;;;;;;4935693;29;20643;-71
2023/08/06 00:57:09;;;;;;;3.50;2.80;;;13.60;50.30;;;;;;4935057;29;20194;-70
2023/08/06 00:59:35;;;;;;;3.80;3.37;;;13.50;50.10;;;;;;4934829;29;20227;-70
2023/08/06 01:02:01;;;;;;;3.73;3.10;;;13.50;49.50;;;;;;4933746;29;20433;-70
2023/08/06 01:04:27;;;;;;;3.80;2.97;;;13.50;50.40;;;;;;4933641;29;20429;-70
2023/08/06 01:07:00;;;;;;;5.00;3.77;;;13.40;49.40;;;;;;4935108;29;20901;-71
2023/08/06 01:09:54;;;;;;;4.83;3.00;;;13.40;50.40;;;;;;4935113;29;20216;-71
2023/08/06 01:12:43;;;;;;;3.30;2.77;;;13.30;49.90;;;;;;4933597;29;20514;-70
2023/08/06 01:15:19;;;;;;;5.10;2.93;;;13.30;49.30;;;;;;4935585;29;20523;-70
2023/08/06 01:17:46;;;;;;;5.30;3.20;;;13.20;50.20;;;;;;4935390;29;20487;-70
2023/08/06 01:20:11;;;;;;;3.67;2.53;;;13.10;49.10;;;;;;4935526;29;20560;-71
2023/08/06 01:22:37;;;;;;;4.10;3.60;;;13.10;48.90;;;;;;4934828;29;20449;-71
2023/08/06 01:25:03;;;;;;;3.30;2.47;;;13.10;46.40;;;;;;4934932;29;20215;-70
2023/08/06 01:27:49;;;;;;;2.93;2.53;;;13.00;47.40;;;;;;4935328;29;20181;-71
2023/08/06 01:30:20;;;;;;;4.30;2.77;;;13.00;45.10;;;;;;4936552;29;20457;-71
2023/08/06 01:32:50;;;;;;;3.97;2.47;;;13.00;42.80;;;;;;4938442;29;20421;-71
2023/08/06 01:35:18;;;;;;;3.47;2.40;;;13.00;42.10;;;;;;4938601;29;20415;-70
2023/08/06 01:37:45;;;;;;;3.27;2.50;;;13.00;39.50;;;;;;4938312;29;20954;-70
2023/08/06 01:40:12;;;;;;;4.37;2.20;;;13.00;37.10;;;;;;4938835;29;20439;-70
2023/08/06 01:42:38;;;;;;;4.43;2.63;;;13.00;38.70;;;;;;4938155;29;20429;-71
2023/08/06 01:45:04;;;;;;;4.30;1.97;;;13.00;38.40;;;;;;4938275;29;20416;-71
2023/08/06 01:47:29;;;;;;;2.97;2.10;;;13.00;39.20;;;;;;4938304;29;20504;-71
2023/08/06 01:49:55;;;;;;;4.17;2.50;;;13.00;36.50;;;;;;4938241;29;20987;-70
2023/08/06 01:52:21;;;;;;;4.23;2.50;;;13.00;35.20;;;;;;4936548;29;20678;-70
2023/08/06 01:54:47;;;;;;;2.70;2.00;;;13.10;34.30;;;;;;4938288;29;20435;-70
2023/08/06 01:57:12;;;;;;;3.90;1.90;;;13.10;34.00;;;;;;4938184;29;20183;-70
2023/08/06 01:59:38;;;;;;;3.40;2.43;;;13.00;34.00;;;;;;4938048;29;20225;-71
2023/08/06 02:02:04;;;;;;;2.60;2.00;;;13.00;34.90;;;;;;4937833;29;20705;-70
2023/08/06 02:04:29;;;;;;;3.17;1.87;;;13.00;35.40;;;;;;4938263;29;20183;-70
2023/08/06 02:06:55;;;;;;;3.70;2.30;;;13.00;36.50;;;;;;4940578;29;20186;-71
2023/08/06 02:09:21;;;;;;;3.50;1.80;;;12.90;37.00;;;;;;4940290;29;20279;-71
2023/08/06 02:11:46;;;;;;;3.33;1.87;;;12.90;38.40;;;;;;4937957;29;20183;-71
2023/08/06 02:14:12;;;;;;;2.97;1.77;;;12.90;36.90;;;;;;4936374;29;20190;-71
2023/08/06 02:16:37;;;;;;;2.97;1.80;;;12.90;36.20;;;;;;4937749;29;20185;-70
2023/08/06 02:19:03;;;;;;;2.53;1.60;;;12.90;37.20;;;;;;4937470;29;20711;-70
2023/08/06 02:21:28;;;;;;;4.00;2.10;;;12.90;38.20;;;;;;4937300;29;20686;-70
2023/08/06 02:23:54;;;;;;;4.30;1.80;;;12.80;37.50;;;;;;4937573;29;20574;-70
2023/08/06 02:26:20;;;;;;;3.50;2.47;;;12.80;38.70;;;;;;4937397;29;20235;-71
2023/08/06 02:28:45;;;;;;;3.77;2.10;;;12.80;38.70;;;;;;4937985;29;20203;-71
2023/08/06 02:31:11;;;;;;;3.10;2.40;;;12.80;39.20;;;;;;4937918;29;20186;-71
2023/08/06 02:33:37;;;;;;;2.80;2.30;;;12.70;40.10;;;;;;4938221;29;20192;-71
2023/08/06 02:36:04;;;;;;;2.90;2.00;;;12.60;40.50;;;;;;4938288;29;20186;-71
2023/08/06 02:38:30;;;;;;;3.57;2.13;;;12.60;41.80;;;;;;4938054;29;20293;-71
2023/08/06 02:40:56;;;;;;;3.10;1.80;;;12.60;42.30;;;;;;4937186;29;20422;-71
2023/08/06 02:43:22;;;;;;;2.73;1.50;;;12.60;42.60;;;;;;4937252;29;20434;-71
2023/08/06 02:45:48;;;;;;;3.57;2.20;;;12.60;43.40;;;;;;4937598;29;20460;-71
2023/08/06 02:48:13;;;;;;;2.90;2.43;;;12.50;43.60;;;;;;4937526;29;20418;-71
2023/08/06 02:50:42;;;;;;;3.03;1.97;;;12.40;43.40;;;;;;4936235;29;20238;-71
2023/08/06 02:53:08;;;;;;;2.97;2.00;;;12.40;44.90;;;;;;4937149;29;20206;-71
2023/08/06 02:55:34;;;;;;;3.87;2.23;;;12.40;45.40;;;;;;4937366;29;20918;-71
2023/08/06 02:58:02;;;;;;;3.60;2.63;;;12.50;44.90;;;;;;4937233;29;20545;-72
2023/08/06 03:00:28;;;;;;;3.70;2.00;;;12.50;44.30;;;;;;4937354;29;20196;-72
2023/08/06 03:02:54;;;;;;;3.20;1.67;;;12.60;43.60;;;;;;4936627;29;20477;-71
2023/08/06 03:05:19;;;;;;;2.73;1.60;;;12.60;43.10;;;;;;4936771;29;20182;-71
2023/08/06 03:07:45;;;;;;;2.00;1.10;;;12.70;41.20;;;;;;4936846;29;20214;-71
2023/08/06 03:10:11;;;;;;;3.40;1.97;;;12.80;38.70;;;;;;4936915;29;20203;-69
2023/08/06 03:12:36;;;;;;;2.60;1.37;;;12.90;37.70;;;;;;4936407;29;20183;-69
2023/08/06 03:15:02;;;;;;;2.70;1.80;;;13.00;36.80;;;;;;4936769;29;20183;-70
2023/08/06 03:17:27;;;;;;;3.30;1.83;;;13.00;35.70;;;;;;4935432;29;20184;-70
2023/08/06 03:19:53;;;;;;;4.70;1.60;;;13.00;35.40;;;;;;4936464;29;20231;-70
2023/08/06 03:22:19;;;;;;;2.90;1.73;;;13.00;36.40;;;;;;4936281;29;20177;-70
2023/08/06 03:24:44;;;;;;;2.80;1.67;;;13.00;35.40;;;;;;4936462;29;20216;-70
2023/08/06 03:27:10;;;;;;;2.83;1.43;;;13.10;34.90;;;;;;4936503;29;20545;-71
2023/08/06 03:29:35;;;;;;;2.43;1.50;;;13.20;34.40;;;;;;4936341;29;20205;-70
2023/08/06 03:32:01;;;;;;;2.20;1.60;;;13.20;35.30;;;;;;4936211;29;20184;-70
2023/08/06 03:34:26;;;;;;;3.27;2.00;;;13.30;33.90;;;;;;4936337;29;20198;-69
2023/08/06 03:36:52;;;;;;;2.57;1.33;;;13.40;33.90;;;;;;4936333;29;20182;-69
2023/08/06 03:39:17;;;;;;;2.80;1.50;;;13.40;32.90;;;;;;4936418;29;20682;-69
2023/08/06 03:41:43;;;;;;;2.33;1.63;;;13.50;32.20;;;;;;4935953;29;20182;-69
2023/08/06 03:44:08;;;;;;;3.10;1.70;;;13.60;31.70;;;;;;4934848;29;20220;-69
2023/08/06 03:46:34;;;;;;;3.33;1.43;;;13.60;31.30;;;;;;4936547;29;20662;-69
2023/08/06 03:49:00;;;;;;;3.50;1.70;;;13.70;31.20;;;;;;4935879;29;20265;-70
2023/08/06 03:51:26;;;;;;;3.03;1.53;;;13.70;30.10;;;;;;4936050;29;20185;-69
2023/08/06 03:53:52;;;;;;;3.90;2.10;;;13.80;30.40;;;;;;4935605;29;20976;-69
2023/08/06 03:56:18;;;;;;;2.70;1.57;;;13.90;29.80;;;;;;4935851;29;20457;-70
2023/08/06 03:58:43;;;;;;;4.27;1.30;;;14.00;29.50;;;;;;4936019;29;20578;-70
2023/08/06 04:01:09;;;;;;;2.50;1.40;;;14.10;29.50;;;;;;4935727;29;20186;-70
2023/08/06 04:03:34;;;;;;;4.33;1.57;;;14.20;29.60;;;;;;4935334;29;20193;-71
2023/08/06 04:06:02;;;;;;;2.93;1.23;;;14.20;29.10;;;;;;4935733;29;20205;-70
2023/08/06 04:08:28;;;;;;;3.10;1.60;;;14.30;28.90;;;;;;4935627;29;20256;-70
2023/08/06 04:10:54;;;;;;;2.77;1.57;;;14.30;30.50;;;;;;4935651;29;20946;-70
2023/08/06 04:13:20;;;;;;;2.37;1.50;;;14.40;32.00;;;;;;4935353;29;20283;-71
2023/08/06 04:15:46;;;;;;;2.60;1.40;;;14.40;32.90;;;;;;4935671;29;20186;-71
2023/08/06 04:18:11;;;;;;;5.33;1.47;;;14.30;33.90;;;;;;4935556;29;20472;-71
2023/08/06 04:20:44;;;;;;;5.33;1.93;;;14.20;35.60;;;;;;4935818;29;20466;-71
2023/08/06 04:23:10;;;;;;;2.40;1.17;;;14.20;38.10;;;;;;4935307;29;20182;-71
2023/08/06 04:25:35;;;;;;;2.73;1.97;;;14.20;37.70;;;;;;4936230;29;20586;-71
2023/08/06 04:28:01;;;;;;;3.57;1.60;;;14.10;39.00;;;;;;4936135;29;20192;-71
2023/08/06 04:30:27;;;;;;;2.43;1.27;;;14.10;39.80;;;;;;4937684;29;20225;-71
2023/08/06 04:32:52;;;;;;;2.63;1.53;;;14.10;39.80;;;;;;4936239;29;20193;-70
2023/08/06 04:35:18;;;;;;;2.10;1.23;;;14.20;39.30;;;;;;4935639;29;20187;-70
2023/08/06 04:37:43;;;;;;;2.87;1.83;;;14.10;38.80;;;;;;4935633;29;20575;-70
2023/08/06 04:40:09;;;;;;;1.80;1.03;;;14.10;39.70;;;;;;4933902;29;20212;-70
2023/08/06 04:42:35;;;;;;;2.13;1.10;;;14.20;38.30;;;;;;4935067;29;20179;-70
2023/08/06 04:45:02;;;;;;;14.80;1.70;;;14.10;37.70;;;;;;4935295;29;20430;-71
2023/08/06 04:47:30;;;;;;;2.90;1.40;;;14.10;36.70;;;;;;4947497;29;20196;-70
2023/08/06 04:49:56;;;;;;;7.13;2.00;;;14.10;38.40;;;;;;4953208;29;20444;-71
2023/08/06 04:52:21;;;;;;;3.20;0.97;;;14.10;37.40;;;;;;4953965;29;20452;-71
2023/08/06 04:54:47;;;;;;;3.20;1.53;;;14.10;34.60;;;;;;4954332;29;20189;-71
2023/08/06 04:57:12;;;;;;;3.10;1.20;;;14.10;33.40;;;;;;4954334;29;20190;-71
2023/08/06 04:59:39;;;;;;;2.70;0.80;;;14.10;34.60;;;;;;4953975;29;20226;-70
2023/08/06 05:02:04;;;;;;;3.80;2.17;;;14.20;33.20;;;;;;4952602;29;20252;-70
2023/08/06 05:04:30;;;;;;;2.40;1.23;;;14.20;33.50;;;;;;4956111;28;20425;-70
2023/08/06 05:06:56;;;;;;;2.70;1.57;;;14.10;28.10;;;;;;4958803;28;20196;-71
2023/08/06 05:09:21;;;;;;;2.13;1.20;;;14.10;29.50;;;;;;4960336;28;20209;-69
2023/08/06 05:11:47;;;;;;;3.00;1.40;;;14.00;31.60;;;;;;4960073;29;20191;-71
2023/08/06 05:14:13;;;;;;;2.73;1.20;;;14.10;31.80;;;;;;4959012;29;20199;-70
2023/08/06 05:16:39;;;;;;;2.73;1.47;;;14.20;30.10;;;;;;4960537;28;20420;-70
2023/08/06 05:19:04;;;;;;;2.27;1.17;;;14.30;31.10;;;;;;4958827;29;20217;-70
2023/08/06 05:21:30;;;;;;;2.33;0.90;;;14.60;29.90;;;;;;4960341;28;20511;-70
2023/08/06 05:23:55;;;;;;;3.10;1.10;;;14.80;28.90;;;;;;4960230;29;20185;-70
2023/08/06 05:26:21;;;;;;;1.70;0.80;;;15.10;26.70;;;;;;4960244;28;20193;-70
2023/08/06 05:28:47;;;;;;;3.10;1.00;;;15.30;24.30;;;;;;4960284;29;20205;-70
2023/08/06 05:31:13;;;;;;;1.90;1.00;;;15.50;22.20;;;;;;4960332;28;20272;-70
2023/08/06 05:33:38;;;;;;;1.83;1.00;;;15.60;22.20;;;;;;4960163;28;20177;-72
2023/08/06 05:36:04;;;;;;;2.20;0.90;;;16.30;22.30;;;;;;4960654;29;20476;-70
2023/08/06 05:38:30;;;;;;;4.00;1.33;;;16.50;15.80;;;;;;4960100;29;20296;-71
2023/08/06 05:40:56;;;;;;;4.03;1.00;;;16.60;14.20;;;;;;4958862;29;20193;-71
2023/08/06 05:43:22;;;;;;;3.50;1.23;;;16.80;14.40;;;;;;4959726;29;20189;-72
2023/08/06 05:45:49;;;;;;;2.10;0.90;;;17.40;11.30;;;;;;4960077;29;21007;-71
2023/08/06 05:48:15;;;;;;;1.70;0.80;;;17.50;10.00;;;;;;4960012;29;20456;-72
2023/08/06 05:50:41;;;;;;;1.70;0.70;;;17.30;10.10;;;;;;4959859;28;20425;-71
2023/08/06 05:53:07;;;;;;;2.50;1.40;;;16.90;11.10;;;;;;4959580;28;20652;-71
2023/08/06 05:55:33;;;;;;;2.37;0.97;;;16.90;9.50;;;;;;4946316;29;20462;-71
2023/08/06 05:57:58;;;;;;;3.23;0.87;;;16.70;10.80;;;;;;4933510;29;20182;-71
2023/08/06 06:00:24;;;;;;;2.27;0.87;;;16.30;11.80;;;;;;4940515;29;20589;-71
2023/08/06 06:02:49;;;;;;;2.20;1.03;;;16.30;14.00;;;;;;4922022;29;20188;-71
2023/08/06 06:05:15;;;;;;;2.00;1.10;;;16.30;13.70;;;;;;4921634;29;20583;-71
2023/08/06 06:07:41;;;;;;;2.40;0.73;;;16.10;12.40;;;;;;4921622;29;20594;-71
2023/08/06 06:10:07;;;;;;;1.70;0.70;;;15.90;15.80;;;;;;4921362;29;20448;-71
2023/08/06 06:12:33;;;;;;;1.50;0.60;;;15.70;13.60;;;;;;4921268;29;20187;-71
2023/08/06 06:15:00;;;;;;;1.70;1.10;;;15.50;17.00;;;;;;4939473;29;20434;-71
2023/08/06 06:17:26;;;;;;;1.70;0.60;;;15.30;17.50;;;;;;4936537;29;20186;-71
2023/08/06 06:19:52;;;;;;;1.83;0.87;;;15.20;20.00;;;;;;4937202;29;20485;-71
2023/08/06 06:22:17;;;;;;;1.93;0.80;;;15.20;19.10;;;;;;4937190;29;20425;-71
2023/08/06 06:24:43;;;;;;;1.70;0.80;;;15.30;20.70;;;;;;4937353;29;20186;-71
2023/08/06 06:27:08;;;;;;;2.53;0.60;;;15.50;19.60;;;;;;4937555;29;20179;-71
2023/08/06 06:29:34;;;;;;;1.70;0.60;;;16.20;15.80;;;;;;4937026;29;20297;-71
2023/08/06 06:31:59;;;;;;;1.70;0.70;;;16.60;14.20;;;;;;4936925;29;20261;-72
2023/08/06 06:34:25;;;;;;;1.90;0.70;;;17.20;12.70;;;;;;4937364;29;20603;-70
2023/08/06 06:36:50;;;;;;;2.00;0.67;;;17.50;11.80;;;;;;4936912;29;20688;-69
2023/08/06 06:39:17;;;;;;;2.97;0.70;;;17.00;9.10;;;;;;4934208;29;20715;-70
2023/08/06 06:41:44;;;;;;;2.13;1.00;;;16.50;14.00;;;;;;4936836;29;20550;-69
2023/08/06 06:44:09;;;;;;;2.03;0.80;;;16.50;13.30;;;;;;4927664;29;20424;-69
2023/08/06 06:46:35;;;;;;;2.37;0.80;;;16.60;14.60;;;;;;4918057;29;20769;-69
2023/08/06 06:49:00;;;;;;;1.70;0.80;;;16.70;14.30;;;;;;4917943;29;20278;-69
2023/08/06 06:51:26;;;;;;;6.30;0.90;;;16.60;14.20;;;;;;4925150;29;20206;-71
2023/08/06 06:53:51;;;;;;;2.07;0.80;;;16.60;12.50;;;;;;4934217;29;20190;-68
2023/08/06 06:56:17;;;;;;;3.00;0.90;;;16.60;13.80;;;;;;4945090;29;20214;-69
2023/08/06 06:58:42;;;;;;;1.40;0.50;;;16.60;13.00;;;;;;4948071;29;20277;-68
2023/08/06 07:01:10;;;;;;;1.70;0.70;;;16.60;11.20;;;;;;4950235;29;20186;-68
2023/08/06 07:03:36;;;;;;;1.90;0.80;;;16.70;9.80;;;;;;4945128;29;20183;-68
2023/08/06 07:06:01;;;;;;;1.50;0.60;;;16.40;12.40;;;;;;4936790;29;20454;-68
2023/08/06 07:08:27;;;;;;;1.97;0.50;;;16.20;15.20;;;;;;4936251;29;20431;-68
2023/08/06 07:11:03;;;;;;;1.80;0.60;;;16.20;15.10;;;;;;4936395;29;20269;-68
2023/08/06 07:13:29;;;;;;;1.50;0.70;;;16.00;14.80;;;;;;4923606;29;20241;-68
2023/08/06 07:15:56;;;;;;;2.13;0.70;;;16.30;15.30;;;;;;4936652;29;20415;-68
2023/08/06 07:18:22;;;;;;;1.60;0.60;;;16.60;15.20;;;;;;4935987;29;20483;-68
2023/08/06 07:20:51;;;;;;;1.50;0.60;;;16.70;13.60;;;;;;4945739;29;20426;-68
2023/08/06 07:23:17;;;;;;;1.57;0.60;;;16.90;11.50;;;;;;4945176;29;20434;-69
2023/08/06 07:25:43;;;;;;;1.67;0.70;;;16.60;14.20;;;;;;4944468;29;20423;-68
2023/08/06 07:28:10;;;;;;;1.50;0.50;;;16.60;13.10;;;;;;4944790;29;20442;-69
2023/08/06 07:30:38;;;;;;;2.60;0.73;;;16.70;14.30;;;;;;4945775;29;20211;-67
2023/08/06 07:33:04;;;;;;;1.70;0.60;;;16.70;15.10;;;;;;4945451;29;20493;-68
2023/08/06 07:35:29;;;;;;;1.90;0.70;;;16.60;15.30;;;;;;4946574;29;20500;-68
2023/08/06 07:37:55;;;;;;;2.07;0.70;;;16.50;16.00;;;;;;4945880;29;20250;-68
2023/08/06 07:40:21;;;;;;;2.33;0.83;;;16.30;16.90;;;;;;4946080;29;20924;-67
2023/08/06 07:42:46;;;;;;;1.50;0.60;;;16.00;17.40;;;;;;4944961;29;20547;-68
2023/08/06 07:45:12;;;;;;;2.67;0.70;;;15.80;19.20;;;;;;4952085;29;20234;-68
2023/08/06 07:47:37;;;;;;;1.50;0.50;;;15.50;20.40;;;;;;4943956;29;20187;-68
2023/08/06 07:50:03;;;;;;;2.30;0.70;;;15.60;20.90;;;;;;4946434;29;20215;-68
2023/08/06 07:52:29;;;;;;;1.40;0.50;;;15.50;19.00;;;;;;4935339;29;20211;-68
2023/08/06 07:54:54;;;;;;;1.50;0.60;;;15.50;19.60;;;;;;4924590;29;20212;-69
2023/08/06 07:57:20;;;;;;;1.40;0.40;;;15.80;18.80;;;;;;4920266;29;20656;-68
2023/08/06 07:59:45;;;;;;;2.13;0.67;;;16.10;18.30;;;;;;4931837;29;20273;-70
2023/08/06 08:02:11;;;;;;;2.57;0.90;;;16.00;15.40;;;;;;4930629;29;20186;-69
2023/08/06 08:04:36;;;;;;;1.30;0.40;;;15.90;17.20;;;;;;4931844;29;20245;-69
2023/08/06 08:07:02;;;;;;;1.57;0.67;;;16.00;17.50;;;;;;4931591;29;20197;-69
2023/08/06 08:09:28;;;;;;;1.50;0.60;;;16.10;16.50;;;;;;4923602;29;20203;-69
2023/08/06 08:11:53;;;;;;;1.60;0.60;;;16.30;17.30;;;;;;4928784;29;20191;-71
2023/08/06 08:14:19;;;;;;;1.50;0.60;;;16.50;15.70;;;;;;4914307;29;20192;-70
2023/08/06 08:16:44;;;;;;;1.50;0.60;;;16.50;12.90;;;;;;4931484;29;20197;-69
2023/08/06 08:19:10;;;;;;;1.50;0.57;;;16.30;14.30;;;;;;4931738;29;20222;-70
2023/08/06 08:21:35;;;;;;;1.40;0.50;;;16.20;16.50;;;;;;4929745;29;20194;-70
2023/08/06 08:24:03;;;;;;;1.90;0.50;;;16.20;15.40;;;;;;4912520;29;20195;-69
2023/08/06 08:26:29;;;;;;;1.60;0.53;;;16.10;17.50;;;;;;4914142;29;20203;-69
2023/08/06 08:28:54;;;;;;;1.40;0.60;;;16.20;16.00;;;;;;4930985;29;20446;-69
2023/08/06 08:31:20;;;;;;;1.60;0.47;;;16.10;17.40;;;;;;4931133;29;20205;-69
2023/08/06 08:33:45;;;;;;;1.40;0.40;;;15.80;18.20;;;;;;4930568;29;20218;-69
2023/08/06 08:36:11;;;;;;;1.30;0.40;;;15.70;18.00;;;;;;4931075;29;20194;-70
2023/08/06 08:38:36;;;;;;;1.50;0.50;;;15.60;19.80;;;;;;4930827;29;20222;-68
2023/08/06 08:41:02;;;;;;;1.30;0.40;;;15.60;20.50;;;;;;4930751;29;20194;-68
2023/08/06 08:43:28;;;;;;;1.30;0.50;;;15.80;20.50;;;;;;4914954;29;20195;-68
2023/08/06 08:45:55;;;;;;;1.40;0.60;;;16.20;18.30;;;;;;4912297;29;20215;-68
2023/08/06 08:48:22;;;;;;;1.50;0.60;;;16.30;17.60;;;;;;4912174;29;20451;-69
2023/08/06 08:50:49;;;;;;;1.40;0.50;;;16.60;16.50;;;;;;4911893;29;20471;-68
2023/08/06 08:53:16;;;;;;;1.37;0.50;;;16.60;15.50;;;;;;4924817;29;20940;-68
2023/08/06 08:55:44;;;;;;;3.13;0.57;;;17.20;15.80;;;;;;4929193;29;20434;-68
2023/08/06 08:58:10;;;;;;;1.70;0.73;;;17.60;13.50;;;;;;4931639;29;20502;-70
2023/08/06 09:00:36;;;;;;;2.00;0.77;;;17.70;13.90;;;;;;4930737;29;20941;-69
2023/08/06 09:03:04;;;;;;;1.50;0.70;;;17.30;12.90;;;;;;4929411;29;20218;-70
2023/08/06 09:05:30;;;;;;;3.87;0.80;;;17.00;13.50;;;;;;4931242;29;20426;-71
2023/08/06 09:08:02;;;;;;;1.40;0.50;;;16.90;13.30;;;;;;4929432;29;20536;-68
2023/08/06 09:10:28;;;;;;;1.40;0.50;;;16.50;14.50;;;;;;4930565;29;20426;-68
2023/08/06 09:13:02;;;;;;;1.40;0.50;;;16.30;14.90;;;;;;4919946;29;20435;-68
2023/08/06 09:15:28;;;;;;;1.40;0.50;;;16.60;15.40;;;;;;4912156;29;20434;-69
2023/08/06 09:17:54;;;;;;;1.30;0.40;;;16.70;14.80;;;;;;4912075;29;20419;-70
2023/08/06 09:20:20;;;;;;;1.83;0.60;;;16.80;14.30;;;;;;4911207;29;20478;-70
2023/08/06 09:22:48;;;;;;;1.40;0.50;;;16.80;13.30;;;;;;4912790;29;20443;-69
2023/08/06 09:25:23;;;;;;;1.40;0.53;;;17.10;14.20;;;;;;4922893;29;20427;-70
2023/08/06 09:27:49;;;;;;;1.40;0.50;;;17.60;13.90;;;;;;4912093;29;20442;-70
2023/08/06 09:30:38;;;;;;;1.53;0.70;;;18.70;7.70;;;;;;4924636;29;20497;-70
2023/08/06 09:33:07;;;;;;;1.80;0.60;;;19.10;7.00;;;;;;4930669;29;20747;-70
2023/08/06 09:35:33;;;;;;;2.00;0.70;;;18.60;6.60;;;;;;4929334;29;20446;-69
2023/08/06 09:38:10;;;;;;;1.50;0.60;;;18.70;7.80;;;;;;4930550;29;20434;-74
2023/08/06 09:40:36;;;;;;;1.40;0.60;;;19.20;7.00;;;;;;4934394;29;20190;-70
2023/08/06 09:43:02;;;;;;;1.67;0.60;;;19.30;4.40;;;;;;4934179;29;20419;-70
2023/08/06 09:45:35;;;;;;;1.40;0.50;;;19.40;2.50;;;;;;4933889;29;20582;-70
2023/08/06 09:48:08;;;;;;;1.40;0.60;;;19.30;6.30;;;;;;4934377;29;20848;-69
2023/08/06 09:50:38;;;;;;;1.70;0.73;;;19.60;3.40;;;;;;4935216;29;20442;-70
2023/08/06 09:53:05;;;;;;;1.50;0.60;;;19.70;2.70;;;;;;4937799;29;20421;-69
2023/08/06 09:55:32;;;;;;;1.50;0.53;;;18.80;5.20;;;;;;4934595;29;20959;-70
2023/08/06 09:57:59;;;;;;;1.60;0.60;;;17.90;10.20;;;;;;4919356;29;20439;-70
2023/08/06 10:00:25;;;;;;;1.40;0.40;;;17.80;11.90;;;;;;4918698;29;20474;-70
2023/08/06 10:02:54;;;;;;;1.80;0.90;;;17.70;11.80;;;;;;4919089;29;20502;-70
2023/08/06 10:05:21;;;;;;;1.47;0.50;;;17.30;13.40;;;;;;4937239;29;20418;-71
2023/08/06 10:07:47;;;;;;;2.17;0.53;;;17.40;15.40;;;;;;4937806;29;20462;-70
2023/08/06 10:10:12;;;;;;;1.57;0.50;;;17.60;12.10;;;;;;4937869;29;20545;-70
2023/08/06 10:12:51;;;;;;;2.70;0.50;;;17.70;12.20;;;;;;4938267;29;20520;-73
2023/08/06 10:15:30;;;;;;;2.13;0.60;;;17.70;13.40;;;;;;4937060;29;20233;-70
2023/08/06 10:17:57;;;;;;;3.13;0.90;;;17.10;14.60;;;;;;4918793;29;20450;-70
2023/08/06 10:20:23;;;;;;;2.00;0.60;;;17.00;16.50;;;;;;4918950;29;21059;-72
2023/08/06 10:23:03;;;;;;;1.30;0.50;;;16.50;18.60;;;;;;4918943;29;20455;-71
2023/08/06 10:25:35;;;;;;;1.40;0.57;;;16.40;20.80;;;;;;4931236;29;20233;-70
2023/08/06 10:28:08;;;;;;;2.67;0.70;;;16.10;19.40;;;;;;4937578;29;20422;-70
2023/08/06 10:30:45;;;;;;;1.50;0.60;;;16.10;21.90;;;;;;4937831;29;20434;-70
2023/08/06 10:33:11;;;;;;;1.30;0.40;;;16.30;21.80;;;;;;4937749;29;20806;-70
2023/08/06 10:35:44;;;;;;;1.93;0.50;;;16.40;20.10;;;;;;4923069;29;20450;-70
2023/08/06 10:38:16;;;;;;;1.40;0.60;;;16.50;18.50;;;;;;4918437;29;20214;-69
2023/08/06 10:41:03;;;;;;;1.30;0.40;;;16.70;16.50;;;;;;4918395;29;20412;-70
2023/08/06 10:43:33;;;;;;;1.30;0.40;;;16.60;16.80;;;;;;4920045;29;20886;-72
2023/08/06 10:46:01;;;;;;;1.50;0.50;;;16.90;17.80;;;;;;4943894;29;20426;-69
2023/08/06 10:48:31;;;;;;;1.50;0.50;;;16.80;17.60;;;;;;4946006;29;20426;-73
2023/08/06 10:50:56;;;;;;;1.40;0.53;;;17.00;16.40;;;;;;4947242;29;20928;-71
2023/08/06 10:53:22;;;;;;;1.40;0.50;;;17.10;16.10;;;;;;4945312;29;20499;-71
2023/08/06 10:55:48;;;;;;;1.50;0.50;;;16.90;16.00;;;;;;4931085;29;20183;-69
2023/08/06 10:58:16;;;;;;;1.70;0.60;;;16.70;17.10;;;;;;4925183;29;20226;-69
2023/08/06 11:00:42;;;;;;;1.33;0.50;;;16.60;17.10;;;;;;4928698;29;20175;-69
2023/08/06 11:03:08;;;;;;;1.90;0.53;;;16.90;16.20;;;;;;4930292;29;20423;-71
2023/08/06 11:05:35;;;;;;;1.40;0.50;;;17.10;17.70;;;;;;4945666;29;20445;-71
2023/08/06 11:08:01;;;;;;;1.60;0.50;;;17.40;15.40;;;;;;4946022;29;20502;-71
2023/08/06 11:10:26;;;;;;;1.50;0.53;;;17.30;15.70;;;;;;4944959;29;20474;-70
2023/08/06 11:12:52;;;;;;;1.37;0.50;;;17.30;16.40;;;;;;4943360;29;20189;-71
2023/08/06 11:15:20;;;;;;;1.63;0.50;;;17.40;14.80;;;;;;4934884;29;20175;-71
2023/08/06 11:17:45;;;;;;;1.63;0.50;;;17.20;15.80;;;;;;4927736;29;20175;-70
2023/08/06 11:20:11;;;;;;;1.40;0.53;;;16.90;17.50;;;;;;4927855;29;20502;-71
2023/08/06 11:22:37;;;;;;;1.40;0.60;;;16.50;18.50;;;;;;4927851;29;20271;-70
2023/08/06 11:25:03;;;;;;;1.37;0.47;;;16.40;18.50;;;;;;4936675;29;20215;-69
2023/08/06 11:27:29;;;;;;;1.50;0.50;;;16.20;19.40;;;;;;4947689;29;20433;-69
2023/08/06 11:29:55;;;;;;;1.30;0.40;;;16.10;21.80;;;;;;4940298;29;20451;-69
2023/08/06 11:32:20;;;;;;;2.07;0.60;;;16.00;22.50;;;;;;4926675;29;20211;-69
2023/08/06 11:34:46;;;;;;;1.60;0.60;;;15.70;23.80;;;;;;4932804;29;20194;-69
2023/08/06 11:37:11;;;;;;;1.73;0.67;;;15.60;24.60;;;;;;4944761;29;20541;-69
2023/08/06 11:39:38;;;;;;;3.10;0.80;;;15.40;26.30;;;;;;4944257;29;20253;-70
2023/08/06 11:42:05;;;;;;;1.50;0.60;;;15.40;27.60;;;;;;4944680;29;20210;-70
2023/08/06 11:44:33;;;;;;;1.60;0.70;;;15.60;26.40;;;;;;4946886;29;20427;-70
2023/08/06 11:47:01;;;;;;;1.37;0.50;;;15.50;28.50;;;;;;4946955;29;20494;-69
2023/08/06 11:49:47;;;;;;;1.80;0.70;;;15.30;29.60;;;;;;4946277;29;20462;-69
2023/08/06 11:52:25;;;;;;;3.03;0.90;;;15.20;31.30;;;;;;4943921;29;20983;-71
2023/08/06 11:55:06;;;;;;;1.80;0.70;;;15.10;35.50;;;;;;4936017;29;20793;-72
2023/08/06 11:57:35;;;;;;;2.03;0.63;;;15.40;33.70;;;;;;4921659;29;20459;-70
2023/08/06 12:00:04;;;;;;;1.73;0.50;;;15.60;31.30;;;;;;4922210;29;20490;-70
2023/08/06 12:02:36;;;;;;;1.30;0.40;;;15.80;28.90;;;;;;4920552;29;20436;-71
2023/08/06 12:05:25;;;;;;;1.30;0.40;;;16.00;26.70;;;;;;4935216;29;20427;-71
2023/08/06 12:07:52;;;;;;;1.33;0.43;;;16.50;27.10;;;;;;4932157;29;20434;-71
2023/08/06 12:10:22;;;;;;;1.40;0.50;;;16.60;24.00;;;;;;4935526;29;20493;-72
2023/08/06 12:12:48;;;;;;;1.37;0.50;;;16.70;23.10;;;;;;4936636;29;20454;-76
2023/08/06 12:15:14;;;;;;;1.60;0.63;;;16.50;20.60;;;;;;4931498;29;20940;-70
2023/08/06 12:17:40;;;;;;;2.00;0.70;;;16.60;19.50;;;;;;4935173;29;20489;-70
2023/08/06 12:20:07;;;;;;;1.40;0.50;;;16.90;17.70;;;;;;4935197;29;20508;-70
2023/08/06 12:22:38;;;;;;;1.50;0.70;;;17.20;17.00;;;;;;4934222;29;20466;-70
2023/08/06 12:25:08;;;;;;;2.60;0.70;;;16.80;15.40;;;;;;4931087;29;20989;-70
2023/08/06 12:27:34;;;;;;;1.40;0.50;;;16.70;17.20;;;;;;4933609;29;20438;-70
2023/08/06 12:30:00;;;;;;;1.40;0.60;;;16.50;16.00;;;;;;4932437;29;20458;-69
2023/08/06 12:32:26;;;;;;;1.90;1.00;;;16.20;16.20;;;;;;4929875;29;20462;-70
2023/08/06 12:34:52;;;;;;;1.70;0.83;;;16.10;16.40;;;;;;4930451;29;20194;-69
2023/08/06 12:37:17;;;;;;;4.00;1.80;;;16.40;16.00;;;;;;4930219;29;20422;-69
2023/08/06 12:39:43;;;;;;;1.70;1.00;;;16.70;15.50;;;;;;4930170;29;20714;-69
2023/08/06 12:42:10;;;;;;;1.70;0.90;;;16.60;13.80;;;;;;4928787;29;20616;-69
2023/08/06 12:44:35;;;;;;;2.47;1.20;;;16.40;11.00;;;;;;4930008;29;20223;-69
2023/08/06 12:47:01;;;;;;;1.60;0.70;;;16.90;13.60;;;;;;4930340;29;20465;-69